Time;durP1;ratioP1;P1;durP2;ratioP2;P2;SDS_P1;SDS_P2;PMS_P1;PMS_P2;Temp;Humidity;BMP_temperature;BMP_pressure;BME280_temperature;BME280_humidity;BME280_pressure;Samples;Min_cycle;Max_cycle;Signal;HPM_P1;HPM_P2
2022/04/09 00:01:21;;;;;;;27.05;14.00;;;;;;;16.72;47.89;100526.00;5026289;28;20382;-59
2022/04/09 00:03:48;;;;;;;25.13;13.07;;;;;;;16.73;47.97;100516.19;5025702;28;20120;-59
2022/04/09 00:06:14;;;;;;;25.95;13.75;;;;;;;16.71;48.12;100524.31;5025687;28;20689;-59
2022/04/09 00:08:41;;;;;;;28.38;14.13;;;;;;;16.70;47.61;100527.97;5026084;28;20041;-59
2022/04/09 00:11:08;;;;;;;23.70;13.27;;;;;;;16.69;48.25;100536.19;5029904;28;20053;-60
2022/04/09 00:13:36;;;;;;;29.08;14.43;;;;;;;16.68;48.30;100538.00;5026613;28;20073;-59
2022/04/09 00:16:03;;;;;;;27.80;13.85;;;;;;;16.67;48.37;100549.69;5029007;28;20044;-60
2022/04/09 00:18:30;;;;;;;22.45;12.60;;;;;;;16.66;48.21;100549.84;5026525;28;20112;-59
2022/04/09 00:20:56;;;;;;;28.15;14.90;;;;;;;16.65;47.83;100557.03;5028885;28;20049;-60
2022/04/09 00:23:23;;;;;;;26.63;14.38;;;;;;;16.65;48.66;100551.69;5025350;28;20424;-59
2022/04/09 00:25:50;;;;;;;28.83;13.77;;;;;;;16.65;48.16;100565.06;5029763;28;20111;-59
2022/04/09 00:28:16;;;;;;;28.02;13.95;;;;;;;16.63;47.81;100569.72;5028219;28;20543;-59
2022/04/09 00:30:43;;;;;;;27.10;14.23;;;;;;;16.64;48.07;100576.75;5027838;28;20432;-59
2022/04/09 00:33:09;;;;;;;25.83;13.95;;;;;;;16.63;48.64;100576.91;5026427;28;20664;-59
2022/04/09 00:35:36;;;;;;;26.85;14.43;;;;;;;16.62;48.32;100585.94;5026405;28;20045;-59
2022/04/09 00:38:02;;;;;;;27.23;13.52;;;;;;;16.62;48.09;100588.59;5029606;28;20049;-59
2022/04/09 00:40:29;;;;;;;25.05;14.00;;;;;;;16.61;48.52;100593.13;5026829;28;20065;-59
2022/04/09 00:42:56;;;;;;;26.38;13.32;;;;;;;16.61;48.03;100592.28;5031938;28;20132;-59
2022/04/09 00:45:22;;;;;;;25.80;13.02;;;;;;;16.60;47.88;100583.38;5027416;28;20052;-59
2022/04/09 00:47:49;;;;;;;24.63;13.68;;;;;;;16.59;48.58;100592.41;5031220;28;20103;-59
2022/04/09 00:50:16;;;;;;;26.70;12.93;;;;;;;16.59;48.61;100586.22;5028578;28;20055;-59
2022/04/09 00:52:52;;;;;;;21.70;11.85;;;;;;;16.57;48.69;100594.41;5031096;28;20038;-59
2022/04/09 00:56:12;;;;;;;29.05;13.40;;;;;;;16.59;48.41;100594.25;5025292;28;20399;-60
2022/04/09 00:58:18;;;;;;;20.90;12.13;;;;;;;16.57;48.16;100583.72;5028279;28;20420;-59
2022/04/09 01:00:45;;;;;;;20.67;11.60;;;;;;;16.57;47.79;100598.94;5027373;28;20057;-60
2022/04/09 01:03:19;;;;;;;22.98;12.55;;;;;;;16.57;47.97;100610.47;5024041;28;20130;-59
2022/04/09 01:05:49;;;;;;;21.90;12.55;;;;;;;16.54;48.79;100611.59;5027507;28;20119;-59
2022/04/09 01:08:16;;;;;;;22.70;11.98;;;;;;;16.54;48.03;100610.75;5030195;28;20121;-59
2022/04/09 01:10:52;;;;;;;20.70;10.90;;;;;;;16.54;47.68;100613.44;5026468;28;20069;-60
2022/04/09 01:13:20;;;;;;;23.63;11.80;;;;;;;16.54;47.92;100618.78;5046185;28;20424;-59
2022/04/09 01:15:47;;;;;;;21.48;11.70;;;;;;;16.54;47.98;100624.97;5045195;28;20049;-59
2022/04/09 01:18:16;;;;;;;20.15;11.00;;;;;;;16.54;48.69;100626.81;5048492;28;20640;-60
2022/04/09 01:20:43;;;;;;;18.80;10.02;;;;;;;16.51;48.65;100627.09;5045390;28;20116;-61
2022/04/09 01:23:10;;;;;;;21.08;11.07;;;;;;;16.52;48.21;100644.81;5047492;28;20136;-60
2022/04/09 01:25:37;;;;;;;20.58;11.07;;;;;;;16.51;48.54;100662.72;5045791;28;20051;-60
2022/04/09 01:28:04;;;;;;;18.98;10.50;;;;;;;16.51;48.28;100664.56;5046575;28;20518;-59
2022/04/09 01:30:31;;;;;;;17.92;9.55;;;;;;;16.51;48.08;100667.22;5045566;28;20298;-59
2022/04/09 01:32:58;;;;;;;20.50;10.77;;;;;;;16.49;48.81;100661.19;5046256;28;20067;-61
2022/04/09 01:35:24;;;;;;;19.88;10.75;;;;;;;16.49;48.57;100659.38;5047219;28;20049;-60
2022/04/09 01:37:51;;;;;;;15.63;9.43;;;;;;;16.48;48.89;100659.50;5048835;28;20056;-58
2022/04/09 01:40:17;;;;;;;16.92;9.20;;;;;;;16.50;48.02;100668.22;5050226;28;20259;-60
2022/04/09 01:42:44;;;;;;;17.23;9.25;;;;;;;16.48;48.56;100675.53;5048848;28;20053;-59
2022/04/09 01:45:11;;;;;;;20.77;10.93;;;;;;;16.47;48.19;100676.53;5048025;28;20033;-59
2022/04/09 01:47:42;;;;;;;17.52;8.93;;;;;;;16.48;47.80;100686.25;5049642;28;20331;-59
2022/04/09 01:50:12;;;;;;;16.13;8.55;;;;;;;16.47;48.26;100692.59;5045854;28;20428;-60
2022/04/09 01:52:39;;;;;;;18.90;9.13;;;;;;;16.46;47.78;100698.94;5045352;28;20059;-60
2022/04/09 01:55:06;;;;;;;16.17;8.68;;;;;;;16.44;48.21;100701.78;5045953;28;20045;-59
2022/04/09 01:57:34;;;;;;;15.48;8.10;;;;;;;16.45;48.87;100699.94;5045217;28;20523;-59
2022/04/09 02:00:00;;;;;;;14.60;7.97;;;;;;;16.42;48.36;100703.75;5046066;28;20782;-60
2022/04/09 02:02:27;;;;;;;17.85;8.43;;;;;;;16.43;47.95;100747.38;5044116;28;20340;-59
2022/04/09 02:04:54;;;;;;;14.23;7.60;;;;;;;16.44;48.47;100767.78;5049612;28;20144;-59
2022/04/09 02:07:20;;;;;;;17.60;8.80;;;;;;;16.41;48.64;100763.59;5048995;28;20036;-59
2022/04/09 02:09:47;;;;;;;15.25;8.15;;;;;;;16.39;48.47;100717.41;5045784;28;20040;-59
2022/04/09 02:12:14;;;;;;;15.43;7.63;;;;;;;16.38;49.16;100728.25;5048153;28;20979;-61
2022/04/09 02:14:40;;;;;;;14.50;7.00;;;;;;;16.38;48.17;100728.25;5046076;28;20049;-60
2022/04/09 02:17:07;;;;;;;14.95;7.47;;;;;;;16.37;48.27;100729.25;5046366;28;20033;-60
2022/04/09 02:19:34;;;;;;;12.40;6.78;;;;;;;16.36;48.62;100730.22;5047621;28;20673;-59
2022/04/09 02:22:00;;;;;;;13.50;6.53;;;;;;;16.34;49.04;100726.88;5046547;28;20453;-58
2022/04/09 02:24:27;;;;;;;13.60;6.70;;;;;;;16.33;48.54;100733.22;5046226;28;20057;-60
2022/04/09 02:26:53;;;;;;;12.25;6.75;;;;;;;16.32;48.15;100732.34;5046713;28;20047;-58
2022/04/09 02:29:20;;;;;;;12.75;6.53;;;;;;;16.29;47.92;100736.16;5046177;28;20071;-59
2022/04/09 02:31:47;;;;;;;11.93;5.93;;;;;;;16.30;49.18;100737.00;5043654;28;20436;-60
2022/04/09 02:34:14;;;;;;;10.80;6.13;;;;;;;16.28;47.98;100747.84;5046339;28;20142;-60
2022/04/09 02:36:41;;;;;;;13.15;5.85;;;;;;;16.29;48.34;100749.53;5027354;28;20037;-59
2022/04/09 02:39:07;;;;;;;8.20;5.15;;;;;;;16.28;48.35;100747.84;5048423;28;20041;-59
2022/04/09 02:41:34;;;;;;;11.43;5.72;;;;;;;16.27;48.64;100747.97;5046908;28;20040;-59
2022/04/09 02:44:01;;;;;;;11.30;5.70;;;;;;;16.26;48.90;100752.50;5045649;28;20436;-60
2022/04/09 02:46:27;;;;;;;12.50;5.80;;;;;;;16.28;48.18;100757.69;5047961;28;20442;-60
2022/04/09 02:48:54;;;;;;;10.32;5.50;;;;;;;16.26;48.44;100751.66;5046496;28;20491;-59
2022/04/09 02:51:21;;;;;;;8.73;4.90;;;;;;;16.24;48.75;100765.19;5046667;28;20037;-59
2022/04/09 02:53:47;;;;;;;10.20;5.00;;;;;;;16.24;48.68;100762.50;5025247;28;20053;-59
2022/04/09 02:56:14;;;;;;;9.77;4.72;;;;;;;16.22;49.27;100769.81;5045909;28;20069;-59
2022/04/09 02:58:40;;;;;;;8.85;4.38;;;;;;;16.23;48.66;100765.31;5045977;28;20123;-59
2022/04/09 03:01:07;;;;;;;9.02;4.70;;;;;;;16.24;48.69;100766.97;5046014;28;20049;-59
2022/04/09 03:03:34;;;;;;;8.63;4.35;;;;;;;16.24;49.08;100769.66;5044883;28;20140;-59
2022/04/09 03:06:00;;;;;;;10.13;5.13;;;;;;;16.23;49.13;100786.69;5047623;28;20155;-59
2022/04/09 03:08:27;;;;;;;11.65;5.00;;;;;;;16.24;48.52;100828.50;5046043;28;20103;-61
2022/04/09 03:10:54;;;;;;;8.35;4.70;;;;;;;16.26;48.07;100805.13;5042543;28;20055;-59
2022/04/09 03:13:21;;;;;;;10.32;4.25;;;;;;;16.23;48.30;100792.88;5046595;28;20139;-60
2022/04/09 03:15:48;;;;;;;8.73;4.50;;;;;;;16.23;49.14;100803.59;5045344;28;20300;-59
2022/04/09 03:18:15;;;;;;;11.13;4.75;;;;;;;16.23;48.67;100797.41;5046591;28;20099;-59
2022/04/09 03:20:42;;;;;;;8.00;4.32;;;;;;;16.21;49.18;100796.72;5042019;28;20068;-59
2022/04/09 03:23:08;;;;;;;8.30;4.03;;;;;;;16.21;48.89;100802.06;5043922;28;20053;-58
2022/04/09 03:25:35;;;;;;;8.23;4.40;;;;;;;16.19;48.98;100798.66;5042954;28;20045;-58
2022/04/09 03:28:01;;;;;;;8.98;4.10;;;;;;;16.18;48.61;100802.34;5048538;28;20305;-60
2022/04/09 03:30:28;;;;;;;8.73;4.28;;;;;;;16.16;49.22;100807.84;5044849;28;20048;-58
2022/04/09 03:32:54;;;;;;;9.57;3.78;;;;;;;16.16;49.17;100805.16;5043262;28;20137;-59
2022/04/09 03:35:21;;;;;;;8.10;3.78;;;;;;;16.14;49.29;100812.47;5044579;28;20047;-59
2022/04/09 03:37:48;;;;;;;8.90;3.67;;;;;;;16.16;49.02;100817.66;5043976;28;20063;-59
2022/04/09 03:40:14;;;;;;;6.07;3.10;;;;;;;16.15;48.71;100821.31;5026194;28;20385;-60
2022/04/09 03:42:41;;;;;;;9.15;3.28;;;;;;;16.13;49.16;100818.81;5046499;28;20059;-58
2022/04/09 03:45:08;;;;;;;6.10;3.13;;;;;;;16.11;48.76;100826.13;5045650;28;20045;-59
2022/04/09 03:47:35;;;;;;;7.68;3.30;;;;;;;16.11;49.54;100819.94;5044260;28;20051;-58
2022/04/09 03:50:03;;;;;;;8.18;3.88;;;;;;;16.09;49.23;100830.78;5045161;28;20368;-59
2022/04/09 03:52:30;;;;;;;7.20;3.40;;;;;;;16.09;48.55;100830.78;5044123;28;20095;-60
2022/04/09 03:54:57;;;;;;;6.97;3.25;;;;;;;16.07;49.33;100835.41;5043901;28;20041;-58
2022/04/09 03:57:23;;;;;;;7.72;3.15;;;;;;;16.08;48.63;100849.59;5042645;28;20132;-59
2022/04/09 03:59:54;;;;;;;8.23;3.80;;;;;;;16.07;49.03;100854.13;5043222;28;20401;-59
2022/04/09 04:02:22;;;;;;;6.28;3.05;;;;;;;16.09;48.75;100852.16;5044156;28;20057;-60
2022/04/09 04:04:49;;;;;;;6.45;3.42;;;;;;;16.09;48.78;100841.47;5044648;28;20400;-59
2022/04/09 04:07:23;;;;;;;5.40;2.60;;;;;;;16.07;49.20;100837.22;5043663;28;20045;-58
2022/04/09 04:09:50;;;;;;;4.72;2.55;;;;;;;16.06;48.80;100836.41;5045241;28;20045;-59
2022/04/09 04:12:17;;;;;;;6.07;2.58;;;;;;;16.04;49.30;100852.59;5044702;28;20428;-59
2022/04/09 04:14:44;;;;;;;5.32;2.53;;;;;;;16.04;49.37;100852.59;5045916;28;20852;-59
2022/04/09 04:17:12;;;;;;;6.65;2.78;;;;;;;16.04;48.57;100855.25;5047244;28;20047;-58
2022/04/09 04:19:39;;;;;;;9.55;3.53;;;;;;;16.03;49.44;100855.38;5043335;28;20076;-60
2022/04/09 04:22:07;;;;;;;7.80;3.20;;;;;;;16.04;49.37;100859.78;5042245;28;20148;-59
2022/04/09 04:24:37;;;;;;;6.10;3.00;;;;;;;16.02;48.91;100864.41;5040981;28;20115;-59
2022/04/09 04:27:07;;;;;;;5.32;2.53;;;;;;;15.98;49.41;100863.81;5044122;28;20866;-59
2022/04/09 04:29:34;;;;;;;5.75;2.63;;;;;;;16.00;48.41;100864.53;5042313;28;20084;-59
2022/04/09 04:32:01;;;;;;;5.75;2.40;;;;;;;16.00;48.69;100869.03;5044311;28;20536;-58
2022/04/09 04:34:27;;;;;;;5.57;2.33;;;;;;;15.98;48.86;100873.69;5045491;28;20395;-59
2022/04/09 04:36:54;;;;;;;5.63;2.40;;;;;;;15.96;49.55;100883.66;5039264;28;20424;-59
2022/04/09 04:39:20;;;;;;;3.58;2.10;;;;;;;15.97;49.46;100882.69;5041283;28;20144;-59
2022/04/09 04:41:47;;;;;;;5.88;2.30;;;;;;;15.96;49.30;100883.66;5044390;28;20136;-58
2022/04/09 04:44:14;;;;;;;3.85;2.10;;;;;;;15.97;48.81;100893.38;5045726;28;20041;-59
2022/04/09 04:46:41;;;;;;;5.53;2.40;;;;;;;15.96;49.41;100889.00;5043701;28;20048;-59
2022/04/09 04:49:08;;;;;;;5.60;2.42;;;;;;;15.96;48.38;100891.66;5041633;28;20536;-59
2022/04/09 04:51:34;;;;;;;5.13;2.30;;;;;;;15.96;48.65;100913.94;5042712;28;20417;-59
2022/04/09 04:54:03;;;;;;;4.10;2.03;;;;;;;15.95;48.61;100908.69;5044870;28;20045;-58
2022/04/09 04:56:29;;;;;;;5.05;2.15;;;;;;;15.95;48.99;100916.72;5044723;28;20147;-58
2022/04/09 04:58:56;;;;;;;4.38;2.17;;;;;;;15.96;49.38;100913.06;5042638;28;20069;-59
2022/04/09 05:01:23;;;;;;;6.63;2.38;;;;;;;15.96;49.18;100913.94;5049480;28;20044;-59
2022/04/09 05:03:50;;;;;;;4.85;2.10;;;;;;;15.98;49.21;100919.97;5048630;28;20049;-59
2022/04/09 05:06:17;;;;;;;5.15;2.00;;;;;;;16.05;48.59;100917.59;5047913;28;20053;-59
2022/04/09 05:08:43;;;;;;;4.00;1.98;;;;;;;16.13;48.28;100923.09;5047264;28;21807;-59
2022/04/09 05:11:10;;;;;;;4.63;2.15;;;;;;;16.20;48.54;100926.91;5050124;28;20052;-59
2022/04/09 05:13:36;;;;;;;4.68;2.28;;;;;;;16.28;49.16;100935.06;5049118;28;20144;-58
2022/04/09 05:16:03;;;;;;;3.92;1.90;;;;;;;16.37;48.36;100938.72;5043559;28;20440;-58
2022/04/09 05:18:29;;;;;;;4.60;2.20;;;;;;;16.46;48.22;100934.34;5044107;28;20412;-58
2022/04/09 05:20:56;;;;;;;6.55;3.25;;;;;;;16.56;48.69;100948.56;5048258;28;20045;-59
2022/04/09 05:23:22;;;;;;;8.48;4.05;;;;;;;16.64;48.33;100953.22;5050310;28;20087;-58
2022/04/09 05:25:49;;;;;;;8.45;4.50;;;;;;;16.72;48.45;100961.38;5052132;28;20376;-60
2022/04/09 05:28:16;;;;;;;11.02;5.32;;;;;;;16.80;47.83;100955.34;5048253;28;20071;-59
2022/04/09 05:30:44;;;;;;;11.02;5.53;;;;;;;16.87;47.95;100946.59;5045098;28;20099;-58
2022/04/09 05:33:11;;;;;;;9.15;5.45;;;;;;;16.94;48.03;100953.06;5048417;28;20037;-59
2022/04/09 05:35:37;;;;;;;8.57;4.38;;;;;;;17.01;47.94;100958.72;5049643;28;20057;-59
2022/04/09 05:38:04;;;;;;;13.52;5.13;;;;;;;17.07;47.41;100962.63;5048996;28;20732;-59
2022/04/09 05:40:30;;;;;;;8.75;4.43;;;;;;;17.12;47.64;100961.19;5048273;28;20041;-59
2022/04/09 05:42:57;;;;;;;11.82;5.53;;;;;;;17.17;47.31;100972.34;5049220;28;20488;-59
2022/04/09 05:45:24;;;;;;;14.73;6.80;;;;;;;17.21;47.64;100981.78;5048062;28;20047;-59
2022/04/09 05:47:51;;;;;;;12.80;5.70;;;;;;;17.25;47.18;100985.84;5046498;28;20053;-60
2022/04/09 05:50:17;;;;;;;16.92;8.38;;;;;;;17.29;46.72;100989.09;5047529;28;20044;-59
2022/04/09 05:52:44;;;;;;;20.55;9.70;;;;;;;17.33;47.28;100997.69;5050840;28;20452;-60
2022/04/09 05:55:11;;;;;;;19.85;9.88;;;;;;;17.34;46.67;101002.88;5050655;28;20040;-59
2022/04/09 05:57:38;;;;;;;22.27;10.13;;;;;;;17.35;46.64;101007.25;5044287;28;20037;-60
2022/04/09 06:00:07;;;;;;;18.60;9.40;;;;;;;17.36;46.51;101016.13;5048732;28;20072;-61
2022/04/09 06:02:35;;;;;;;19.75;8.82;;;;;;;17.36;46.45;101008.09;5049142;28;20048;-60
2022/04/09 06:05:03;;;;;;;21.00;10.75;;;;;;;17.36;46.41;101016.97;5049542;28;20049;-60
2022/04/09 06:07:30;;;;;;;17.55;9.52;;;;;;;17.36;46.80;101019.66;5047412;28;20155;-60
2022/04/09 06:09:57;;;;;;;20.25;10.30;;;;;;;17.35;46.59;101025.16;5047411;28;20076;-60
2022/04/09 06:12:24;;;;;;;21.13;10.63;;;;;;;17.32;46.39;101028.13;5048711;28;20061;-60
2022/04/09 06:14:51;;;;;;;20.17;9.95;;;;;;;17.28;46.13;101030.25;5047889;28;20041;-60
2022/04/09 06:17:17;;;;;;;18.25;9.93;;;;;;;17.25;46.87;101041.28;5048474;28;20037;-59
2022/04/09 06:19:44;;;;;;;24.85;10.18;;;;;;;17.23;46.76;101044.06;5050116;28;20162;-59
2022/04/09 06:22:10;;;;;;;20.98;10.25;;;;;;;17.22;47.12;101041.56;5048389;28;20041;-59
2022/04/09 06:24:37;;;;;;;18.52;9.75;;;;;;;17.19;46.51;101048.03;5052594;28;20132;-60
2022/04/09 06:27:03;;;;;;;18.83;10.40;;;;;;;17.18;46.82;101049.03;5045651;28;20135;-59
2022/04/09 06:29:30;;;;;;;20.02;10.07;;;;;;;17.17;47.01;101044.66;5050147;28;20076;-60
2022/04/09 06:31:56;;;;;;;19.23;9.85;;;;;;;17.15;46.85;101049.31;5047069;28;20055;-59
2022/04/09 06:34:23;;;;;;;16.58;9.65;;;;;;;17.15;46.58;101049.31;5050015;28;20048;-60
2022/04/09 06:36:50;;;;;;;18.48;9.60;;;;;;;17.13;47.08;101048.63;5046522;28;20041;-60
2022/04/09 06:39:18;;;;;;;16.33;9.05;;;;;;;17.13;46.53;101059.31;5049574;28;20041;-60
2022/04/09 06:41:48;;;;;;;18.77;8.82;;;;;;;17.13;46.90;101061.16;5047785;28;20065;-60
2022/04/09 06:44:15;;;;;;;19.70;9.27;;;;;;;17.12;46.61;101067.47;5050057;28;20041;-60
2022/04/09 06:46:43;;;;;;;19.80;9.32;;;;;;;17.10;46.78;101072.16;5049113;28;20420;-59
2022/04/09 06:49:12;;;;;;;19.38;9.35;;;;;;;17.08;46.68;101074.97;5044698;28;20068;-60
2022/04/09 06:51:39;;;;;;;20.13;9.55;;;;;;;17.06;47.23;101076.94;5044589;28;20063;-61
2022/04/09 06:54:06;;;;;;;19.38;10.05;;;;;;;17.04;47.23;101086.94;5049805;28;20076;-60
2022/04/09 06:56:33;;;;;;;20.33;9.50;;;;;;;17.00;46.73;101090.88;5049597;28;20413;-60
2022/04/09 06:59:00;;;;;;;19.67;9.60;;;;;;;16.98;47.37;101093.72;5050069;28;20601;-59
2022/04/09 07:01:27;;;;;;;22.90;10.05;;;;;;;16.95;47.04;101104.69;5049971;28;20163;-59
2022/04/09 07:03:53;;;;;;;18.33;9.15;;;;;;;16.93;46.72;101108.53;5050741;28;20088;-60
2022/04/09 07:06:21;;;;;;;19.80;8.82;;;;;;;16.93;46.68;101116.56;5046912;28;20049;-59
2022/04/09 07:08:48;;;;;;;17.15;8.75;;;;;;;16.92;47.16;101126.38;5049065;28;20128;-59
2022/04/09 07:11:15;;;;;;;17.30;9.30;;;;;;;16.92;47.35;101122.88;5050033;28;20051;-59
2022/04/09 07:13:41;;;;;;;16.58;9.00;;;;;;;16.92;47.23;101122.88;5050902;28;20136;-59
2022/04/09 07:16:08;;;;;;;18.23;9.07;;;;;;;16.89;46.95;101126.69;5049143;28;20077;-59
2022/04/09 07:18:35;;;;;;;16.80;8.15;;;;;;;16.89;46.64;101120.50;5048469;28;20037;-59
2022/04/09 07:21:01;;;;;;;18.35;8.60;;;;;;;16.88;47.01;101129.50;5047322;28;20080;-59
2022/04/09 07:23:28;;;;;;;17.33;8.70;;;;;;;16.87;47.38;101128.66;5050601;28;20037;-58
2022/04/09 07:25:55;;;;;;;20.65;10.25;;;;;;;16.86;46.88;101132.31;5049794;28;20132;-58
2022/04/09 07:28:22;;;;;;;22.70;11.30;;;;;;;16.85;46.93;101138.66;5049130;28;20557;-59
2022/04/09 07:30:48;;;;;;;26.38;13.75;;;;;;;16.86;46.56;101142.19;5046940;28;20044;-59
2022/04/09 07:33:15;;;;;;;25.98;14.38;;;;;;;16.87;46.73;101143.88;5049331;28;20148;-58
2022/04/09 07:35:41;;;;;;;32.50;16.60;;;;;;;16.90;47.03;101140.91;5047663;28;20128;-58
2022/04/09 07:38:08;;;;;;;31.27;17.52;;;;;;;16.91;47.18;101143.44;5002948;28;20057;-58
2022/04/09 07:40:36;;;;;;;30.23;17.23;;;;;;;16.94;46.83;101142.34;5041808;28;20324;-58
2022/04/09 07:43:03;;;;;;;33.40;17.65;;;;;;;16.94;47.15;101145.00;5037184;28;20492;-59
2022/04/09 07:45:29;;;;;;;37.30;19.55;;;;;;;16.97;47.00;101145.59;5039099;28;20072;-59
2022/04/09 07:47:58;;;;;;;37.38;21.00;;;;;;;16.99;47.20;101143.59;5039558;28;20048;-58
2022/04/09 07:50:25;;;;;;;40.60;21.88;;;;;;;17.02;46.39;101143.31;5042287;28;20317;-59
2022/04/09 07:52:53;;;;;;;37.67;19.33;;;;;;;17.05;46.37;101150.25;5042916;28;20037;-60
2022/04/09 07:55:20;;;;;;;39.55;20.77;;;;;;;17.08;46.58;101157.97;5043655;28;20048;-60
2022/04/09 07:57:50;;;;;;;35.72;19.40;;;;;;;17.10;46.17;101157.84;5041623;28;20124;-59
2022/04/09 08:00:19;;;;;;;37.65;19.75;;;;;;;17.12;46.01;101155.88;5043033;28;20128;-60
2022/04/09 08:02:46;;;;;;;37.03;19.80;;;;;;;17.12;46.37;101159.38;5039814;28;20118;-59
2022/04/09 08:05:13;;;;;;;36.35;19.25;;;;;;;17.15;46.58;101155.59;5045163;28;20103;-59
2022/04/09 08:07:40;;;;;;;39.15;19.38;;;;;;;17.16;46.29;101162.63;5042588;28;20332;-58
2022/04/09 08:10:08;;;;;;;36.15;19.10;;;;;;;17.16;45.73;101166.16;5042584;28;20131;-58
2022/04/09 08:12:35;;;;;;;33.10;17.17;;;;;;;17.17;46.36;101167.03;5041617;28;20061;-60
2022/04/09 08:15:01;;;;;;;32.08;17.55;;;;;;;17.17;45.85;101178.59;5043010;28;20128;-60
2022/04/09 08:17:28;;;;;;;32.70;16.42;;;;;;;17.17;45.71;101178.59;5041192;28;20136;-60
2022/04/09 08:19:55;;;;;;;32.47;15.93;;;;;;;17.20;45.89;101177.44;5039581;28;20049;-60
2022/04/09 08:22:22;;;;;;;30.42;15.88;;;;;;;17.21;46.41;101173.81;5041045;28;20063;-59
2022/04/09 08:24:49;;;;;;;27.48;15.55;;;;;;;17.22;45.84;101179.00;5040428;28;20044;-59
2022/04/09 08:27:16;;;;;;;29.30;14.52;;;;;;;17.24;46.29;101198.44;5037554;28;20049;-59
2022/04/09 08:29:42;;;;;;;31.00;15.50;;;;;;;17.24;45.99;101201.13;5040379;28;20119;-59
2022/04/09 08:32:09;;;;;;;27.67;14.70;;;;;;;17.24;45.91;101198.44;5042743;28;20046;-59
2022/04/09 08:34:37;;;;;;;26.45;13.55;;;;;;;17.23;45.41;101204.81;5042314;28;20041;-58
2022/04/09 08:37:06;;;;;;;23.77;13.55;;;;;;;17.20;45.63;101206.91;5042524;28;20135;-59
2022/04/09 08:39:34;;;;;;;27.67;14.02;;;;;;;17.18;46.08;101207.06;5021342;28;20144;-59
2022/04/09 08:42:02;;;;;;;23.70;13.13;;;;;;;17.18;45.89;101217.78;5038341;28;20051;-59
2022/04/09 08:44:33;;;;;;;31.77;13.75;;;;;;;17.19;45.83;101213.25;5040050;28;20063;-59
2022/04/09 08:47:00;;;;;;;31.27;15.30;;;;;;;17.20;46.41;101201.56;5040294;28;20175;-60
2022/04/09 08:49:29;;;;;;;35.80;16.65;;;;;;;17.24;46.46;101208.31;5038784;28;20147;-59
2022/04/09 08:51:55;;;;;;;52.60;22.92;;;;;;;17.27;46.13;101206.22;5048955;28;20055;-59
2022/04/09 08:54:22;;;;;;;58.92;24.98;;;;;;;17.32;46.30;101207.63;5052081;28;20320;-58
2022/04/09 08:56:50;;;;;;;51.88;25.38;;;;;;;17.37;46.08;101208.06;5052569;28;20048;-59
2022/04/09 08:59:17;;;;;;;48.45;22.98;;;;;;;17.39;46.13;101252.47;5043215;28;20124;-60
2022/04/09 09:01:43;;;;;;;55.00;23.02;;;;;;;17.40;46.01;101269.41;5044645;28;20049;-60
2022/04/09 09:04:10;;;;;;;48.13;22.65;;;;;;;17.40;45.34;101264.88;5049604;28;20111;-60
2022/04/09 09:06:44;;;;;;;43.33;20.27;;;;;;;17.38;45.38;101274.91;5048801;28;20052;-60
2022/04/09 09:09:29;;;;;;;46.42;21.05;;;;;;;17.35;44.97;101277.00;5054782;28;20419;-60
2022/04/09 09:11:57;;;;;;;52.08;21.25;;;;;;;17.27;45.32;101280.38;5052572;28;20124;-60
2022/04/09 09:14:34;;;;;;;42.25;21.30;;;;;;;17.18;45.65;101271.34;5047486;28;20467;-60
2022/04/09 09:17:03;;;;;;;42.65;20.00;;;;;;;17.15;44.98;101276.13;5045660;28;20061;-58
2022/04/09 09:19:45;;;;;;;37.65;18.50;;;;;;;17.07;45.72;101278.63;5049226;28;20127;-60
2022/04/09 09:22:12;;;;;;;39.25;18.73;;;;;;;17.06;46.10;101282.31;5052173;28;20072;-59
2022/04/09 09:24:39;;;;;;;33.83;17.48;;;;;;;17.01;46.27;101285.41;5051740;28;20044;-61
2022/04/09 09:27:06;;;;;;;34.60;17.85;;;;;;;16.97;46.23;101282.16;5053338;28;20508;-59
2022/04/09 09:29:33;;;;;;;35.95;16.60;;;;;;;16.96;46.05;101283.09;5046183;28;20065;-59
2022/04/09 09:32:02;;;;;;;31.23;16.30;;;;;;;17.04;46.38;101290.47;5046911;28;20096;-59
2022/04/09 09:34:29;;;;;;;29.05;14.82;;;;;;;17.13;45.98;101283.47;5052348;28;21285;-60
2022/04/09 09:36:56;;;;;;;30.08;15.27;;;;;;;17.20;46.61;101285.44;5052429;28;20049;-59
2022/04/09 09:39:25;;;;;;;24.77;11.85;;;;;;;17.29;45.78;101283.78;5048516;28;20037;-60
2022/04/09 09:41:57;;;;;;;26.95;12.18;;;;;;;17.39;45.61;101284.63;5042382;28;20131;-60
2022/04/09 09:44:31;;;;;;;23.08;11.13;;;;;;;17.48;44.82;101288.31;5041557;28;20379;-59
2022/04/09 09:47:07;;;;;;;17.92;9.30;;;;;;;17.56;44.64;101290.28;5051355;28;20047;-60
2022/04/09 09:49:58;;;;;;;20.95;9.88;;;;;;;17.63;44.69;101296.78;5051479;28;20059;-60
2022/04/09 09:52:30;;;;;;;18.52;9.32;;;;;;;17.64;44.59;101288.59;5050031;28;20119;-60
2022/04/09 09:54:57;;;;;;;19.83;9.15;;;;;;;17.66;44.74;101299.19;5051384;28;20095;-59
2022/04/09 09:57:26;;;;;;;17.80;9.45;;;;;;;17.69;44.34;101296.25;5052128;28;20041;-60
2022/04/09 10:00:05;;;;;;;17.13;8.02;;;;;;;17.74;44.32;101300.22;5050076;28;20059;-61
2022/04/09 10:02:32;;;;;;;18.83;8.57;;;;;;;17.79;43.92;101288.22;5051478;28;20047;-60
2022/04/09 10:04:59;;;;;;;18.40;8.65;;;;;;;17.80;44.33;101293.44;5050977;28;20049;-59
2022/04/09 10:07:26;;;;;;;15.95;8.02;;;;;;;17.83;44.28;101292.31;5051845;28;20037;-61
2022/04/09 10:09:53;;;;;;;15.40;7.93;;;;;;;17.86;44.08;101289.38;5050945;28;20076;-59
2022/04/09 10:12:22;;;;;;;15.65;7.32;;;;;;;17.86;44.01;101305.44;5027866;28;20052;-59
2022/04/09 10:14:53;;;;;;;14.88;7.75;;;;;;;17.86;43.85;101313.50;5030825;28;20077;-59
2022/04/09 10:17:20;;;;;;;15.85;6.97;;;;;;;17.85;43.92;101322.50;5029006;28;20041;-59
2022/04/09 10:19:55;;;;;;;11.50;6.10;;;;;;;17.83;43.67;101319.97;5012800;28;20088;-58
2022/04/09 10:22:26;;;;;;;12.95;6.50;;;;;;;17.82;43.76;101320.13;5031276;28;20144;-59
2022/04/09 10:24:55;;;;;;;13.10;6.15;;;;;;;17.81;43.79;101326.47;5027817;28;20081;-59
2022/04/09 10:27:43;;;;;;;12.95;5.85;;;;;;;17.81;43.90;101331.81;5029905;28;20044;-59
2022/04/09 10:30:16;;;;;;;12.00;6.47;;;;;;;17.79;43.60;101342.69;5023072;28;20042;-59
2022/04/09 10:32:45;;;;;;;12.98;6.15;;;;;;;17.78;44.00;101338.34;5025259;28;20046;-59
2022/04/09 10:35:45;;;;;;;14.30;6.03;;;;;;;17.75;43.96;101342.13;5029031;28;20053;-58
2022/04/09 10:38:14;;;;;;;11.77;6.13;;;;;;;17.75;43.85;101352.00;4987378;28;20108;-59
2022/04/09 10:40:43;;;;;;;10.98;4.85;;;;;;;17.73;43.94;101346.75;5025682;28;20297;-59
2022/04/09 10:43:31;;;;;;;10.45;5.15;;;;;;;17.72;44.21;101354.94;5025367;28;20152;-59
2022/04/09 10:46:00;;;;;;;9.50;4.70;;;;;;;17.73;44.19;101359.31;5025371;28;20057;-60
2022/04/09 10:48:29;;;;;;;10.35;4.57;;;;;;;17.73;44.59;101364.69;5025550;28;20044;-60
2022/04/09 10:51:15;;;;;;;9.63;4.28;;;;;;;17.74;44.16;101359.22;5012348;28;20124;-59
2022/04/09 10:53:45;;;;;;;11.10;4.20;;;;;;;17.79;44.10;101355.25;5022755;28;20147;-59
2022/04/09 10:56:24;;;;;;;11.93;4.50;;;;;;;17.80;44.13;101352.44;5023031;28;20487;-58
2022/04/09 10:59:06;;;;;;;8.90;4.35;;;;;;;17.81;43.89;101358.63;5023486;28;20152;-59
2022/04/09 11:01:51;;;;;;;9.63;4.10;;;;;;;17.80;44.14;101363.16;5021515;28;20132;-59
2022/04/09 11:04:36;;;;;;;10.85;4.55;;;;;;;17.81;44.63;101364.00;5024220;28;20216;-58
2022/04/09 11:07:04;;;;;;;13.75;5.88;;;;;;;17.81;44.52;101364.88;5020686;28;20049;-59
2022/04/09 11:09:56;;;;;;;17.77;8.73;;;;;;;17.81;44.07;101374.72;5022726;28;20041;-58
2022/04/09 11:12:38;;;;;;;19.60;10.02;;;;;;;17.81;43.77;101378.28;5028243;28;20049;-59
2022/04/09 11:15:08;;;;;;;16.83;8.25;;;;;;;17.81;43.90;101382.75;5044479;28;20056;-59
2022/04/09 11:17:45;;;;;;;17.92;8.95;;;;;;;17.81;43.45;101401.53;5047266;28;20044;-58
2022/04/09 11:20:17;;;;;;;24.25;10.38;;;;;;;17.83;43.63;101380.81;5041926;28;20059;-58
2022/04/09 11:22:50;;;;;;;20.77;9.15;;;;;;;17.83;43.58;101378.13;5043707;28;20204;-58